Time;durP1;ratioP1;P1;durP2;ratioP2;P2;SDS_P1;SDS_P2;PMS_P1;PMS_P2;Temp;Humidity;BMP_temperature;BMP_pressure;BME280_temperature;BME280_humidity;BME280_pressure;Samples;Min_cycle;Max_cycle;Signal;HPM_P1;HPM_P2
2022/03/23 00:00:43;;;;;;;;;35.75;30.00;;;;;16.81;33.82;102229.13;2104341;28;47539;-61
2022/03/23 00:01:44;;;;;;;;;37.80;32.20;;;;;16.80;33.76;102227.38;2104221;28;47607;-61
2022/03/23 00:02:44;;;;;;;;;36.00;32.00;;;;;16.79;33.99;102228.28;2104496;28;47198;-61
2022/03/23 00:03:46;;;;;;;;;39.00;34.00;;;;;16.78;33.64;102232.75;2104253;28;47908;-60
2022/03/23 00:04:47;;;;;;;;;37.00;32.20;;;;;16.77;33.81;102237.25;2104353;28;47761;-58
2022/03/23 00:05:48;;;;;;;;;40.20;34.40;;;;;16.77;33.92;102231.88;2104534;28;47724;-60
2022/03/23 00:06:48;;;;;;;;;38.60;34.60;;;;;16.77;33.88;102234.56;2104319;28;47200;-63
2022/03/23 00:07:49;;;;;;;;;42.50;34.00;;;;;16.77;33.47;102234.56;2104394;28;47805;-61
2022/03/23 00:08:50;;;;;;;;;39.75;34.75;;;;;16.76;33.74;102223.84;2104064;28;47533;-60
2022/03/23 00:09:51;;;;;;;;;34.80;32.00;;;;;16.74;33.27;102231.94;2103890;28;48233;-61
2022/03/23 00:10:51;;;;;;;;;40.25;34.00;;;;;16.73;33.73;102230.16;2104472;28;47789;-61
2022/03/23 00:11:52;;;;;;;;;42.25;34.75;;;;;16.72;33.52;102232.88;2104105;28;47519;-62
2022/03/23 00:12:57;;;;;;;;;35.75;32.75;;;;;16.71;33.82;102236.50;2104212;28;47388;-59
2022/03/23 00:13:57;;;;;;;;;40.00;34.40;;;;;16.70;33.75;102235.59;2104023;28;47709;-61
2022/03/23 00:14:57;;;;;;;;;39.25;32.00;;;;;16.69;33.32;102235.66;2094474;28;47817;-61
2022/03/23 00:15:58;;;;;;;;;41.50;34.75;;;;;16.68;33.78;102231.22;2094906;28;47023;-62
2022/03/23 00:16:59;;;;;;;;;41.60;34.20;;;;;16.68;33.45;102234.75;2104160;28;47222;-62
2022/03/23 00:17:59;;;;;;;;;37.25;33.50;;;;;16.68;33.61;102236.56;2104292;28;47455;-61
2022/03/23 00:19:00;;;;;;;;;37.25;32.25;;;;;16.68;33.47;102234.75;2104163;28;47990;-61
2022/03/23 00:20:00;;;;;;;;;31.75;30.00;;;;;16.68;33.38;102233.88;2103962;28;48012;-62
2022/03/23 00:21:01;;;;;;;;;38.50;33.00;;;;;16.67;33.53;102241.03;2104270;28;47698;-61
2022/03/23 00:22:03;;;;;;;;;36.75;33.25;;;;;16.67;33.69;102246.41;2104015;28;48055;-60
2022/03/23 00:23:03;;;;;;;;;39.00;33.60;;;;;16.67;33.32;102245.50;2104166;28;47639;-61
2022/03/23 00:24:05;;;;;;;;;38.00;32.25;;;;;16.67;33.69;102248.19;2095040;28;47981;-61
2022/03/23 00:25:06;;;;;;;;;41.20;34.80;;;;;16.66;33.74;102246.41;2095361;28;47689;-61
2022/03/23 00:26:08;;;;;;;;;37.00;32.40;;;;;16.67;33.44;102243.72;2102416;27;47302;-62
2022/03/23 00:27:08;;;;;;;;;43.60;33.80;;;;;16.66;33.23;102243.72;2096568;28;48120;-61
2022/03/23 00:28:09;;;;;;;;;33.50;31.75;;;;;16.66;33.47;102243.72;2103545;28;47558;-61
2022/03/23 00:29:10;;;;;;;;;38.75;34.00;;;;;16.65;33.37;102245.53;2103753;28;47877;-58
2022/03/23 00:30:10;;;;;;;;;37.25;32.50;;;;;16.65;33.18;102242.84;2103691;28;47109;-61
2022/03/23 00:31:11;;;;;;;;;41.50;35.00;;;;;16.65;33.02;102248.22;2104277;28;47905;-62
2022/03/23 00:32:14;;;;;;;;;37.50;32.50;;;;;16.64;33.21;102246.44;2103958;28;47997;-62
2022/03/23 00:33:15;;;;;;;;;38.00;32.40;;;;;16.63;33.53;102246.47;2104161;28;47604;-61
2022/03/23 00:34:16;;;;;;;;;39.60;35.00;;;;;16.63;33.34;102255.38;2103859;28;48370;-59
2022/03/23 00:35:16;;;;;;;;;35.00;32.00;;;;;16.64;33.44;102253.59;2105113;28;47381;-60
2022/03/23 00:36:18;;;;;;;;;42.50;34.75;;;;;16.62;33.52;102253.63;2105465;28;47682;-57
2022/03/23 00:37:19;;;;;;;;;34.20;31.20;;;;;16.61;33.04;102246.50;2087664;28;48032;-59
2022/03/23 00:38:20;;;;;;;;;35.60;30.40;;;;;16.61;33.31;102254.53;2087495;28;47371;-61
2022/03/23 00:39:22;;;;;;;;;40.40;33.80;;;;;16.60;33.12;102249.22;2105177;28;47274;-59
2022/03/23 00:40:23;;;;;;;;;40.40;32.00;;;;;16.59;32.82;102250.13;2105239;28;47641;-61
2022/03/23 00:41:23;;;;;;;;;34.75;32.00;;;;;16.59;33.18;102255.50;2105609;28;47252;-62
2022/03/23 00:42:24;;;;;;;;;38.00;33.00;;;;;16.57;33.05;102246.59;2105366;28;47749;-61
2022/03/23 00:43:25;;;;;;;;;32.00;29.80;;;;;16.58;32.87;102256.41;2105564;28;47965;-61
2022/03/23 00:44:26;;;;;;;;;36.75;32.25;;;;;16.57;33.02;102247.50;2096260;28;47646;-60
2022/03/23 00:45:26;;;;;;;;;31.50;29.25;;;;;16.57;33.22;102249.28;2096526;28;48103;-62
2022/03/23 00:46:26;;;;;;;;;34.25;30.00;;;;;16.55;33.17;102243.97;2105578;28;48011;-60
2022/03/23 00:47:27;;;;;;;;;33.25;31.00;;;;;16.55;32.88;102248.44;2105575;28;48271;-61
2022/03/23 00:48:27;;;;;;;;;32.00;30.00;;;;;16.55;32.81;102248.44;2105326;28;47536;-61
2022/03/23 00:49:28;;;;;;;;;38.25;34.50;;;;;16.54;33.12;102249.38;2105666;28;47620;-61
2022/03/23 00:50:28;;;;;;;;;31.50;30.00;;;;;16.52;33.14;102244.03;2105359;28;47066;-62
2022/03/23 00:51:29;;;;;;;;;37.50;32.50;;;;;16.52;32.88;102254.75;2105826;28;48143;-60
2022/03/23 00:52:29;;;;;;;;;33.50;30.00;;;;;16.52;32.97;102259.25;2105481;28;47638;-61
2022/03/23 00:53:30;;;;;;;;;35.00;31.00;;;;;16.52;32.81;102248.53;2105641;28;47311;-62
2022/03/23 00:54:30;;;;;;;;;33.50;31.25;;;;;16.50;33.05;102243.16;2105242;28;47622;-62
2022/03/23 00:55:30;;;;;;;;;37.50;33.25;;;;;16.50;33.13;102251.22;2105490;28;47600;-61
2022/03/23 00:56:31;;;;;;;;;32.50;30.00;;;;;16.49;32.68;102246.75;2105375;28;47706;-61
2022/03/23 00:57:31;;;;;;;;;31.25;29.25;;;;;16.48;32.99;102250.38;2105625;28;47562;-61
2022/03/23 00:58:32;;;;;;;;;35.75;31.75;;;;;16.48;32.80;102248.56;2105079;28;47579;-59
2022/03/23 00:59:33;;;;;;;;;35.75;32.00;;;;;16.46;33.00;102247.72;2105654;28;47700;-63
2022/03/23 01:00:34;;;;;;;;;32.20;30.40;;;;;16.46;33.07;102250.41;2105385;28;48162;-59
2022/03/23 01:01:34;;;;;;;;;33.80;30.80;;;;;16.45;32.66;102251.31;2105655;28;47697;-60
2022/03/23 01:02:35;;;;;;;;;30.00;29.00;;;;;16.45;33.00;102248.63;2105317;28;47397;-60
2022/03/23 01:03:35;;;;;;;;;28.00;27.75;;;;;16.44;32.51;102246.00;2105464;28;47638;-60
2022/03/23 01:04:36;;;;;;;;;36.75;32.00;;;;;16.43;32.60;102247.78;2105491;28;48001;-61
2022/03/23 01:05:37;;;;;;;;;31.60;28.80;;;;;16.42;32.88;102246.03;2105464;28;47645;-59
2022/03/23 01:06:37;;;;;;;;;35.75;31.25;;;;;16.42;32.90;102247.84;2105261;28;48157;-61
2022/03/23 01:07:41;;;;;;;;;36.00;32.00;;;;;16.40;32.88;102247.88;2105582;28;47757;-59
2022/03/23 01:08:41;;;;;;;;;37.60;32.60;;;;;16.39;33.04;102247.91;2104986;28;47663;-59
2022/03/23 01:09:42;;;;;;;;;29.50;28.25;;;;;16.39;32.91;102253.25;2105278;28;48069;-62
2022/03/23 01:10:43;;;;;;;;;25.75;25.00;;;;;16.38;33.04;102251.47;2105558;28;48056;-62
2022/03/23 01:11:44;;;;;;;;;35.20;31.80;;;;;16.36;33.07;102248.81;2098215;28;47751;-62
2022/03/23 01:12:47;;;;;;;;;35.60;32.00;;;;;16.36;33.12;102248.81;2103262;28;47531;-62
2022/03/23 01:13:47;;;;;;;;;35.80;32.20;;;;;16.36;33.15;102255.97;2105242;28;47844;-62
2022/03/23 01:14:48;;;;;;;;;33.00;30.75;;;;;16.35;33.21;102252.44;2105488;28;47698;-59
2022/03/23 01:15:48;;;;;;;;;38.00;32.00;;;;;16.35;32.86;102251.53;2105257;28;47652;-62
2022/03/23 01:16:52;;;;;;;;;41.00;32.00;;;;;16.32;32.99;102252.50;2105452;28;47584;-57
2022/03/23 01:17:53;;;;;;;;;33.00;30.60;;;;;16.32;33.21;102254.28;2105125;28;47510;-61
2022/03/23 01:18:53;;;;;;;;;36.50;30.50;;;;;16.30;32.79;102254.34;2105295;28;47924;-62
2022/03/23 01:19:54;;;;;;;;;36.00;32.00;;;;;16.29;33.32;102249.88;2105482;28;47258;-59
2022/03/23 01:20:54;;;;;;;;;39.00;34.00;;;;;16.28;33.14;102248.13;2105298;28;47531;-61
2022/03/23 01:21:55;;;;;;;;;35.25;31.00;;;;;16.28;33.21;102250.81;2105297;28;47436;-60
2022/03/23 01:22:55;;;;;;;;;37.50;32.25;;;;;16.28;33.59;102249.94;2105324;28;47862;-62
2022/03/23 01:23:56;;;;;;;;;32.25;29.50;;;;;16.27;33.20;102249.03;2105320;28;47723;-60
2022/03/23 01:24:56;;;;;;;;;36.00;32.75;;;;;16.27;32.80;102254.41;2105118;28;46592;-63
2022/03/23 01:25:57;;;;;;;;;40.00;33.50;;;;;16.28;33.11;102256.16;2086934;28;47407;-61
2022/03/23 01:26:57;;;;;;;;;33.50;31.25;;;;;16.26;33.44;102246.38;2087584;28;47185;-62
2022/03/23 01:27:58;;;;;;;;;37.25;32.25;;;;;16.24;32.88;102249.09;2105314;28;47406;-61
2022/03/23 01:28:58;;;;;;;;;33.75;32.00;;;;;16.23;32.95;102252.69;2105351;28;48096;-61
2022/03/23 01:29:58;;;;;;;;;36.50;32.00;;;;;16.22;33.38;102244.69;2105015;28;47872;-61
2022/03/23 01:30:59;;;;;;;;;37.50;32.75;;;;;16.19;32.97;102248.31;2105190;28;47653;-62
2022/03/23 01:32:00;;;;;;;;;32.80;30.60;;;;;16.16;33.24;102243.03;2105379;28;47781;-62
2022/03/23 01:33:00;;;;;;;;;37.50;32.00;;;;;16.13;33.57;102243.06;2105330;28;47736;-61
2022/03/23 01:34:02;;;;;;;;;29.00;28.75;;;;;16.11;33.36;102240.41;2105112;28;48054;-62
2022/03/23 01:35:03;;;;;;;;;32.80;31.40;;;;;16.09;33.06;102246.72;2105506;28;48241;-61
2022/03/23 01:36:04;;;;;;;;;31.40;30.40;;;;;16.08;33.22;102240.50;2105180;28;47371;-62
2022/03/23 01:37:04;;;;;;;;;30.00;29.25;;;;;16.07;33.30;102236.06;2105330;28;47765;-62
2022/03/23 01:38:04;;;;;;;;;39.75;31.25;;;;;16.06;33.43;102239.66;2105310;28;46489;-60
2022/03/23 01:39:05;;;;;;;;;39.75;35.00;;;;;16.04;33.68;102238.78;2104832;28;47292;-62
2022/03/23 01:40:08;;;;;;;;;38.00;32.75;;;;;16.04;33.63;102236.13;2105470;28;47381;-61
2022/03/23 01:41:09;;;;;;;;;37.40;33.80;;;;;16.05;33.48;102237.88;2104935;28;47315;-62
2022/03/23 01:42:09;;;;;;;;;34.50;32.00;;;;;16.04;33.65;102238.78;2105225;28;47882;-62
2022/03/23 01:43:10;;;;;;;;;35.00;30.50;;;;;16.03;33.02;102238.84;2105371;28;47773;-61
2022/03/23 01:44:17;;;;;;;;;36.50;33.00;;;;;16.03;33.14;102242.38;2104886;28;48080;-62
2022/03/23 01:45:19;;;;;;;;;35.00;31.80;;;;;16.02;33.03;102234.41;2087405;28;47803;-60
2022/03/23 01:46:20;;;;;;;;;36.20;32.40;;;;;16.01;32.97;102236.19;2087667;28;47415;-62
2022/03/23 01:47:20;;;;;;;;;28.60;26.20;;;;;16.00;33.31;102242.44;2095974;28;47842;-59
2022/03/23 01:48:21;;;;;;;;;38.75;32.75;;;;;16.01;33.51;102244.22;2096330;28;48077;-60
2022/03/23 01:49:22;;;;;;;;;32.80;30.80;;;;;16.00;33.03;102238.88;2104001;28;47626;-60
2022/03/23 01:50:22;;;;;;;;;35.75;30.75;;;;;15.97;33.01;102237.13;2105174;28;47863;-61
2022/03/23 01:51:23;;;;;;;;;35.75;32.75;;;;;15.97;32.88;102228.22;2105086;28;47476;-62
2022/03/23 01:52:29;;;;;;;;;35.80;30.40;;;;;15.96;32.84;102239.84;2096396;28;47474;-61
2022/03/23 01:53:29;;;;;;;;;35.00;29.80;;;;;15.93;33.12;102235.44;2096953;28;47533;-62
2022/03/23 01:54:29;;;;;;;;;31.75;30.50;;;;;15.89;32.96;102237.31;2105075;28;48031;-61
2022/03/23 01:55:30;;;;;;;;;34.00;31.00;;;;;15.88;32.87;102237.34;2105121;28;48076;-60
2022/03/23 01:56:30;;;;;;;;;32.75;31.25;;;;;15.88;33.33;102246.25;2104837;28;48195;-60
2022/03/23 01:57:31;;;;;;;;;33.25;29.50;;;;;15.86;33.20;102234.66;2105007;28;47515;-61
2022/03/23 01:58:31;;;;;;;;;34.50;29.50;;;;;15.87;33.14;102235.53;2105183;28;47554;-60
2022/03/23 01:59:33;;;;;;;;;32.75;30.50;;;;;15.86;32.86;102233.78;2104879;28;48053;-62
2022/03/23 02:00:35;;;;;;;;;31.20;29.60;;;;;15.86;33.20;102233.78;2104508;28;47847;-61
2022/03/23 02:01:40;;;;;;;;;31.00;29.20;;;;;15.85;32.99;102235.59;2104786;28;48196;-60
2022/03/23 02:02:40;;;;;;;;;34.00;31.60;;;;;15.85;33.25;102234.69;2105014;28;48059;-60
2022/03/23 02:03:41;;;;;;;;;34.75;29.00;;;;;15.85;32.79;102232.91;2105053;28;47235;-60
2022/03/23 02:04:41;;;;;;;;;35.50;31.75;;;;;15.85;33.35;102229.34;2105021;28;47171;-60
2022/03/23 02:05:42;;;;;;;;;36.00;31.00;;;;;15.84;33.33;102233.81;2104917;28;47772;-61
2022/03/23 02:06:43;;;;;;;;;34.25;29.25;;;;;15.84;33.16;102228.47;2104688;28;47472;-61
2022/03/23 02:07:43;;;;;;;;;33.50;30.75;;;;;15.84;32.81;102227.59;2104955;28;47537;-62
2022/03/23 02:08:43;;;;;;;;;36.75;32.25;;;;;15.84;33.28;102233.81;2104924;28;47392;-59
2022/03/23 02:09:44;;;;;;;;;28.25;28.00;;;;;15.82;32.77;102230.28;2104234;28;47323;-60
2022/03/23 02:10:45;;;;;;;;;31.75;29.25;;;;;15.79;32.81;102233.03;2105185;28;47731;-59
2022/03/23 02:11:47;;;;;;;;;40.25;34.00;;;;;15.79;32.94;102232.16;2108080;27;47621;-60
2022/03/23 02:12:48;;;;;;;;;35.00;30.20;;;;;15.78;32.90;102233.06;2112102;27;48246;-59
2022/03/23 02:13:49;;;;;;;;;29.20;28.60;;;;;15.76;32.69;102230.44;2105087;28;47279;-61
2022/03/23 02:14:50;;;;;;;;;31.00;28.80;;;;;15.73;33.10;102227.78;2104992;28;47518;-57
2022/03/23 02:15:50;;;;;;;;;37.50;31.00;;;;;15.73;33.02;102229.59;2104993;28;47868;-61
2022/03/23 02:16:51;;;;;;;;;31.75;29.75;;;;;15.73;32.80;102235.81;2104909;28;47781;-60
2022/03/23 02:17:54;;;;;;;;;34.60;30.40;;;;;15.73;32.83;102240.28;2104797;28;47567;-61
2022/03/23 02:18:54;;;;;;;;;32.20;30.00;;;;;15.72;32.76;102231.38;2104362;28;48082;-61
2022/03/23 02:19:55;;;;;;;;;35.75;32.75;;;;;15.73;33.05;102235.81;2104687;28;47675;-62
2022/03/23 02:20:55;;;;;;;;;35.00;31.00;;;;;15.73;32.98;102235.81;2104603;28;47588;-61
2022/03/23 02:21:56;;;;;;;;;36.75;31.00;;;;;15.72;32.93;102231.38;2104845;28;47633;-62
2022/03/23 02:22:57;;;;;;;;;31.20;29.40;;;;;15.73;33.33;102237.63;2104960;28;47545;-60
2022/03/23 02:23:57;;;;;;;;;36.25;31.50;;;;;15.73;32.87;102229.59;2105019;28;47559;-61
2022/03/23 02:24:57;;;;;;;;;31.00;29.25;;;;;15.72;33.01;102231.38;2104843;28;47881;-61
2022/03/23 02:26:02;;;;;;;;;35.00;32.25;;;;;15.71;32.64;102232.28;2104911;28;47706;-61
2022/03/23 02:27:03;;;;;;;;;32.20;29.80;;;;;15.69;33.24;102227.88;2102590;28;47984;-59
2022/03/23 02:28:04;;;;;;;;;32.00;30.50;;;;;15.68;33.12;102232.34;2103619;28;48150;-60
2022/03/23 02:29:05;;;;;;;;;32.20;29.00;;;;;15.67;33.14;102232.38;2104989;28;48204;-60
2022/03/23 02:30:07;;;;;;;;;34.50;32.00;;;;;15.65;32.92;102229.75;2104581;28;48003;-61
2022/03/23 02:31:08;;;;;;;;;31.40;29.00;;;;;15.64;32.80;102230.66;2104760;28;48018;-61
2022/03/23 02:32:08;;;;;;;;;29.75;29.00;;;;;15.64;32.96;102229.78;2104588;28;47518;-60
2022/03/23 02:33:09;;;;;;;;;35.75;31.00;;;;;15.63;32.83;102236.94;2104719;28;47796;-61
2022/03/23 02:34:10;;;;;;;;;38.00;31.00;;;;;15.60;33.25;102235.16;2104667;28;47921;-62
2022/03/23 02:35:15;;;;;;;;;34.00;30.75;;;;;15.57;33.19;102242.34;2104627;28;47796;-60
2022/03/23 02:36:15;;;;;;;;;34.80;30.80;;;;;15.54;32.71;102235.25;2104579;28;47864;-61
2022/03/23 02:37:16;;;;;;;;;36.50;30.75;;;;;15.53;33.20;102232.63;2104581;28;47801;-61
2022/03/23 02:38:17;;;;;;;;;31.25;29.50;;;;;15.52;32.94;102233.53;2104867;28;47851;-60
2022/03/23 02:39:17;;;;;;;;;34.00;31.25;;;;;15.51;32.88;102239.78;2104819;28;47414;-59
2022/03/23 02:40:18;;;;;;;;;34.00;31.25;;;;;15.50;33.13;102238.91;2104941;28;47522;-62
2022/03/23 02:41:19;;;;;;;;;36.25;33.25;;;;;15.50;32.95;102238.91;2104649;28;48075;-62
2022/03/23 02:42:19;;;;;;;;;36.25;30.75;;;;;15.49;33.04;102237.13;2104746;28;47645;-62
2022/03/23 02:43:19;;;;;;;;;27.50;26.75;;;;;15.49;32.97;102237.13;2104934;28;48027;-60
2022/03/23 02:44:20;;;;;;;;;32.00;30.00;;;;;15.47;33.04;102238.94;2104939;28;48166;-62
2022/03/23 02:45:20;;;;;;;;;39.50;32.00;;;;;15.47;33.35;102232.72;2104608;28;47528;-59
2022/03/23 02:46:22;;;;;;;;;33.00;31.00;;;;;15.46;32.98;102230.94;2104579;28;47534;-60
2022/03/23 02:47:22;;;;;;;;;31.60;29.80;;;;;15.44;33.25;102236.31;2104714;28;47824;-60
2022/03/23 02:48:23;;;;;;;;;30.50;28.75;;;;;15.43;33.16;102237.25;2104829;28;47350;-61
2022/03/23 02:49:23;;;;;;;;;26.25;25.25;;;;;15.41;33.56;102236.38;2086786;28;47613;-61
2022/03/23 02:50:24;;;;;;;;;31.50;28.25;;;;;15.42;32.83;102237.25;2086407;28;47982;-62
2022/03/23 02:51:24;;;;;;;;;32.25;29.50;;;;;15.40;33.07;102242.66;2087183;28;47379;-59
2022/03/23 02:52:25;;;;;;;;;39.00;32.50;;;;;15.39;33.26;102238.22;2086766;28;47999;-60
2022/03/23 03:02:21;;;;;;;;;32.00;30.80;;;;;15.27;33.40;102243.78;2054055;28;48079;-61
2022/03/23 03:03:22;;;;;;;;;27.20;24.80;;;;;15.27;33.39;102249.13;2054347;28;47415;-61
2022/03/23 03:04:23;;;;;;;;;34.00;31.50;;;;;15.27;33.60;102244.66;2054174;28;47545;-61
2022/03/23 03:05:24;;;;;;;;;29.00;26.80;;;;;15.26;33.46;102244.69;2054190;28;48090;-61
2022/03/23 03:06:24;;;;;;;;;33.25;30.25;;;;;15.23;33.29;102242.91;2046059;28;47918;-61
2022/03/23 03:07:25;;;;;;;;;20.00;20.00;;;;;15.26;33.04;102247.34;2046389;28;47339;-61
2022/03/23 03:09:45;;;;;;;;;34.40;28.60;;;;;15.24;33.35;102247.34;2053871;28;47765;-58
2022/03/23 03:10:45;;;;;;;;;24.75;23.50;;;;;15.23;32.94;102242.03;2053687;28;47275;-60
2022/03/23 03:11:47;;;;;;;;;34.75;29.50;;;;;15.22;33.50;102250.97;2053879;28;47912;-62
2022/03/23 03:12:48;;;;;;;;;33.20;29.60;;;;;15.21;33.12;102250.09;2054035;28;47865;-62
2022/03/23 03:13:50;;;;;;;;;30.00;29.40;;;;;15.20;33.06;102248.31;2054054;28;47744;-60
2022/03/23 03:14:50;;;;;;;;;31.60;29.40;;;;;15.20;33.42;102253.66;2053928;28;47970;-61
2022/03/23 03:15:51;;;;;;;;;29.50;27.75;;;;;15.19;33.00;102248.34;2054290;28;48045;-58
2022/03/23 03:16:51;;;;;;;;;32.25;28.00;;;;;15.19;33.43;102253.69;2053854;28;47676;-62
2022/03/23 03:17:57;;;;;;;;;25.25;23.00;;;;;15.18;33.02;102255.50;2054235;28;47957;-60
2022/03/23 03:18:58;;;;;;;;;25.60;25.00;;;;;15.16;33.15;102251.97;2054181;28;47742;-61
2022/03/23 03:19:58;;;;;;;;;33.50;30.00;;;;;15.15;33.08;102255.53;2054111;28;47836;-61
2022/03/23 03:21:09;;;;;;;;;31.75;27.75;;;;;15.14;33.35;102261.81;2054196;28;47248;-59
2022/03/23 03:22:10;;;;;;;;;24.00;24.00;;;;;15.13;33.15;102253.81;2054163;28;47890;-62
2022/03/23 03:23:11;;;;;;;;;32.80;27.40;;;;;15.11;33.30;102261.81;2054139;28;48392;-61
2022/03/23 03:24:12;;;;;;;;;34.50;30.00;;;;;15.12;33.10;102257.38;2054027;28;47636;-59
2022/03/23 03:25:15;;;;;;;;;29.00;26.25;;;;;15.10;33.42;102259.19;2054106;28;48027;-62
2022/03/23 03:26:17;;;;;;;;;29.60;28.80;;;;;15.09;33.00;102257.41;2054076;28;48078;-61
2022/03/23 03:27:17;;;;;;;;;29.60;27.80;;;;;15.08;32.91;102259.22;2057034;28;47984;-61
2022/03/23 03:28:17;;;;;;;;;25.75;24.50;;;;;15.07;32.96;102259.25;2078634;28;47230;-62
2022/03/23 03:29:18;;;;;;;;;30.25;28.75;;;;;15.06;33.10;102255.69;2078524;28;47959;-62
2022/03/23 03:30:19;;;;;;;;;32.00;29.50;;;;;15.06;32.89;102254.81;2078391;28;47550;-60
2022/03/23 03:31:19;;;;;;;;;30.00;28.40;;;;;15.06;33.29;102265.50;2078228;28;48004;-62
2022/03/23 03:32:20;;;;;;;;;29.25;28.00;;;;;15.05;33.11;102258.38;2078510;28;47366;-61
2022/03/23 03:33:20;;;;;;;;;24.50;24.50;;;;;15.04;33.00;102267.31;2078300;28;46304;-60
2022/03/23 03:34:20;;;;;;;;;28.75;26.75;;;;;15.02;33.23;102270.03;2078421;28;48219;-62
2022/03/23 03:35:21;;;;;;;;;30.25;26.50;;;;;15.01;32.96;102268.25;2078471;28;47452;-60
2022/03/23 03:36:21;;;;;;;;;30.00;29.00;;;;;14.98;32.98;102270.94;2084968;28;47702;-61
2022/03/23 03:37:22;;;;;;;;;32.00;27.75;;;;;14.96;33.23;102270.97;2104334;28;47477;-62
2022/03/23 03:38:22;;;;;;;;;25.50;25.00;;;;;14.93;33.02;102273.69;2104762;28;47960;-62
2022/03/23 03:39:23;;;;;;;;;30.25;29.25;;;;;14.92;32.96;102266.59;2104173;28;47819;-60
2022/03/23 03:40:23;;;;;;;;;32.00;26.00;;;;;14.91;33.11;102270.19;2104328;28;47828;-61
2022/03/23 03:41:23;;;;;;;;;30.50;30.00;;;;;14.90;32.83;102264.84;2104407;28;47672;-61
2022/03/23 03:42:25;;;;;;;;;31.00;29.75;;;;;14.87;33.11;102268.47;2104422;28;48018;-61
2022/03/23 03:43:26;;;;;;;;;28.00;25.40;;;;;14.85;33.19;102272.91;2104591;28;47833;-61
2022/03/23 03:44:26;;;;;;;;;28.50;28.50;;;;;14.82;33.13;102269.41;2104277;28;47694;-61
2022/03/23 03:45:27;;;;;;;;;27.50;26.25;;;;;14.80;32.93;102271.22;2104466;28;48038;-59
2022/03/23 03:46:28;;;;;;;;;28.00;26.50;;;;;14.77;33.10;102272.16;2104414;28;47416;-61
2022/03/23 03:47:28;;;;;;;;;29.00;28.60;;;;;14.77;33.14;102276.63;2103927;28;47722;-61
2022/03/23 03:48:29;;;;;;;;;28.00;27.25;;;;;14.75;33.12;102279.34;2094789;28;47666;-60
2022/03/23 03:49:29;;;;;;;;;27.25;26.00;;;;;14.75;32.91;102275.78;2094513;28;47936;-60
2022/03/23 03:50:30;;;;;;;;;28.75;28.00;;;;;14.74;33.33;102277.56;2104530;28;47461;-59
2022/03/23 03:51:30;;;;;;;;;26.50;26.00;;;;;14.72;33.08;102279.34;2104408;28;47394;-62
2022/03/23 03:52:31;;;;;;;;;32.25;26.00;;;;;14.70;32.96;102279.38;2104283;28;47603;-63
2022/03/23 03:53:32;;;;;;;;;31.00;27.75;;;;;14.70;33.09;102278.50;2104121;28;47280;-64
2022/03/23 03:54:32;;;;;;;;;31.00;28.60;;;;;14.66;33.24;102277.66;2104059;28;47508;-61
2022/03/23 03:55:33;;;;;;;;;28.25;27.50;;;;;14.65;32.98;102288.38;2104180;28;47463;-61
2022/03/23 03:56:34;;;;;;;;;29.75;26.50;;;;;14.63;33.28;102283.06;2104479;28;47729;-59
2022/03/23 03:57:34;;;;;;;;;28.75;27.50;;;;;14.61;33.19;102284.88;2104121;28;47491;-62
2022/03/23 03:58:35;;;;;;;;;25.25;25.25;;;;;14.61;33.32;102282.19;2104509;28;47609;-59
2022/03/23 03:59:35;;;;;;;;;27.75;26.00;;;;;14.61;33.36;102284.88;2103995;28;48121;-62
2022/03/23 04:00:36;;;;;;;;;29.50;27.75;;;;;14.59;33.55;102283.97;2104263;28;47907;-60
2022/03/23 04:01:37;;;;;;;;;30.40;27.00;;;;;14.59;33.58;102283.97;2104311;28;48004;-60
2022/03/23 04:02:37;;;;;;;;;28.50;28.25;;;;;14.58;33.23;102292.00;2104294;28;47830;-62
2022/03/23 04:03:37;;;;;;;;;28.75;27.25;;;;;14.57;33.37;102291.13;2086329;28;48041;-62
2022/03/23 04:04:38;;;;;;;;;26.75;25.75;;;;;14.58;33.55;102286.66;2086399;28;47613;-62
2022/03/23 04:05:38;;;;;;;;;28.75;26.50;;;;;14.55;33.58;102284.94;2104260;28;47675;-62
2022/03/23 04:06:38;;;;;;;;;31.75;29.50;;;;;14.54;33.65;102291.19;2104334;28;47756;-61
2022/03/23 04:07:39;;;;;;;;;29.75;28.00;;;;;14.54;33.50;102295.63;2104321;28;47799;-62
2022/03/23 04:08:39;;;;;;;;;29.00;27.50;;;;;14.54;33.77;102282.28;2104311;28;48047;-62
2022/03/23 04:09:40;;;;;;;;;27.00;27.00;;;;;14.52;33.59;102292.09;2103219;28;48284;-60
2022/03/23 04:10:40;;;;;;;;;27.25;26.50;;;;;14.50;33.41;102289.47;2104037;28;47663;-62
2022/03/23 04:11:40;;;;;;;;;28.00;26.50;;;;;14.51;33.66;102295.69;2086219;28;47413;-59
2022/03/23 04:12:41;;;;;;;;;29.00;28.75;;;;;14.50;33.58;102300.16;2085712;28;47165;-61
2022/03/23 04:13:42;;;;;;;;;31.00;28.00;;;;;14.49;33.44;102289.47;2101688;28;48163;-59
2022/03/23 04:14:42;;;;;;;;;27.75;27.25;;;;;14.49;33.92;102292.16;2103998;28;47796;-61
2022/03/23 04:15:42;;;;;;;;;30.25;29.50;;;;;14.48;33.66;102293.91;2086436;28;47369;-56
2022/03/23 04:16:43;;;;;;;;;27.25;24.25;;;;;14.50;33.71;102296.59;2086337;28;47770;-60
2022/03/23 04:17:43;;;;;;;;;27.25;27.00;;;;;14.48;33.76;102299.25;2104057;28;47538;-61
2022/03/23 04:18:44;;;;;;;;;30.00;27.25;;;;;14.48;33.79;102290.34;2104152;28;48017;-59
2022/03/23 04:19:44;;;;;;;;;31.25;29.50;;;;;14.48;33.71;102301.03;2104021;28;47287;-62
2022/03/23 04:20:44;;;;;;;;;28.75;26.50;;;;;14.47;33.88;102300.16;2104406;28;47813;-62
2022/03/23 04:21:45;;;;;;;;;30.00;27.00;;;;;14.46;33.85;102301.06;2104292;28;48045;-61
2022/03/23 04:22:46;;;;;;;;;29.00;27.50;;;;;14.47;33.85;102304.63;2104051;28;47348;-61
2022/03/23 04:23:46;;;;;;;;;30.00;28.00;;;;;14.47;33.95;102301.94;2104338;28;47821;-62
2022/03/23 04:24:46;;;;;;;;;31.75;27.25;;;;;14.45;34.00;102295.75;2103842;28;47569;-59
2022/03/23 04:25:47;;;;;;;;;30.00;28.50;;;;;14.45;33.96;102303.75;2104229;28;47448;-60
2022/03/23 04:26:47;;;;;;;;;27.50;26.25;;;;;14.45;33.91;102301.09;2104024;28;48108;-62
2022/03/23 04:27:50;;;;;;;;;29.00;27.75;;;;;14.45;34.06;102306.44;2103859;28;47310;-59
2022/03/23 04:28:51;;;;;;;;;29.20;28.20;;;;;14.43;33.82;102306.41;2099426;28;48081;-61
2022/03/23 04:29:51;;;;;;;;;25.25;25.00;;;;;14.41;34.24;102305.56;2101652;28;47609;-62
2022/03/23 04:30:52;;;;;;;;;29.75;27.50;;;;;14.40;33.96;102304.69;2103926;28;47496;-60
2022/03/23 04:31:53;;;;;;;;;30.25;30.00;;;;;14.40;34.17;102306.47;2104361;28;47801;-61
2022/03/23 04:32:54;;;;;;;;;37.25;33.00;;;;;14.38;33.99;102306.50;2103891;28;47435;-60
2022/03/23 04:33:54;;;;;;;;;23.80;23.80;;;;;14.37;33.96;102306.50;2104114;28;47688;-61
2022/03/23 04:34:54;;;;;;;;;31.25;28.25;;;;;14.35;34.13;102310.97;2104012;28;47541;-59
2022/03/23 04:35:55;;;;;;;;;29.00;28.50;;;;;14.33;33.90;102310.09;2103844;28;47705;-61
2022/03/23 04:36:55;;;;;;;;;29.00;27.25;;;;;14.33;34.03;102312.78;2104386;28;47689;-63
2022/03/23 04:37:56;;;;;;;;;25.50;25.50;;;;;14.33;34.20;102304.75;2103974;28;47766;-60
2022/03/23 04:38:57;;;;;;;;;25.60;25.60;;;;;14.32;33.90;102311.00;2103872;28;47317;-60
2022/03/23 04:39:57;;;;;;;;;32.25;30.50;;;;;14.32;34.04;102311.00;2103859;28;47918;-61
2022/03/23 04:40:58;;;;;;;;;29.00;27.25;;;;;14.32;34.21;102311.88;2103876;28;47635;-59
2022/03/23 04:41:58;;;;;;;;;28.50;27.25;;;;;14.33;34.10;102315.44;2104199;28;46220;-61
2022/03/23 04:42:59;;;;;;;;;28.00;27.00;;;;;14.33;34.26;102312.78;2103970;28;47855;-60
2022/03/23 04:43:59;;;;;;;;;27.50;27.00;;;;;14.33;33.92;102312.78;2103938;28;47379;-61
2022/03/23 04:45:00;;;;;;;;;27.00;27.00;;;;;14.33;34.18;102316.31;2104174;28;47785;-60
2022/03/23 04:46:01;;;;;;;;;31.25;29.75;;;;;14.34;34.33;102310.06;2103968;28;47909;-59
2022/03/23 04:47:02;;;;;;;;;28.20;27.80;;;;;14.35;34.22;102308.28;2104027;28;47313;-60